^^
Datos históricos de la estación: Murcia-Puente Tocinos
Diario Informe para Mayo 3, 2019 Unidades:  Ambas    Ingés   Métrico
Diario Semanal Mensual Anual
  Máxima: Mínima: Promedio:
Temperatura: 71.2 °F /  21.8 °C 56.8 °F /  13.8 °C 63 °F /  17.2 °C
Punto de rocio: 55.6 °F /  13.1 °C 45.9 °F /  7.7 °C 50.2 °F /  10.1 °C
Humedad: 79% 41.5% 65%
Velocidad viento: 14.7mph /  23.7km/h - 6.1mph /  9.8km/h
Racha viento: 25mph /  40.2km/h - -
Viento- - ESE
Presión: 29.9 in /  1013.3 hPa 29.7 in /  1006.5 hPa -
Precipitación: 0 in /  0.0 mm    
 
 
Tabla de datos para Mayo 3, 2019
Hora Temperatura Punto de rocio Presión Viento Velocidad viento Racha viento Humedad Intensidad lluvia(por hora) Nubes
00:04 60.4 °F /  15.8 °C 53.4 °F /  11.9 °C 29.9in /  1013.3hPa NO 1.8mph /  2.9km/h 3mph /  4.8km/h 77.8% 0in /  0.0mm
00:09 60.4 °F /  15.8 °C 53.2 °F /  11.8 °C 29.9in /  1013.1hPa NO 1.4mph /  2.2km/h 3mph /  4.8km/h 77% 0in /  0.0mm
00:14 60.3 °F /  15.7 °C 53.1 °F /  11.7 °C 29.9in /  1013.1hPa Calm   3.6mph /  5.8km/h 77% 0in /  0.0mm
00:19 60.3 °F /  15.7 °C 53.1 °F /  11.7 °C 29.9in /  1013.2hPa NO 0.5mph /  0.8km/h 4mph /  6.4km/h 77% 0in /  0.0mm
00:24 60.4 °F /  15.8 °C 53.1 °F /  11.7 °C 29.9in /  1013.2hPa OSO 1.4mph /  2.2km/h 2.4mph /  3.9km/h 77% 0in /  0.0mm
00:29 60.4 °F /  15.8 °C 53.2 °F /  11.8 °C 29.9in /  1013.2hPa OSO 1.4mph /  2.2km/h 3.6mph /  5.8km/h 77% 0in /  0.0mm
00:34 60.4 °F /  15.8 °C 53.2 °F /  11.8 °C 29.9in /  1013.2hPa OSO 1.4mph /  2.2km/h 4.6mph /  7.4km/h 77% 0in /  0.0mm
00:39 60.6 °F /  15.9 °C 53.4 °F /  11.9 °C 29.9in /  1013.2hPa Oeste 1.7mph /  2.8km/h 5mph /  8km/h 77% 0in /  0.0mm
00:44 60.6 °F /  15.9 °C 53.4 °F /  11.9 °C 29.9in /  1013.2hPa Oeste 2.4mph /  3.9km/h 5mph /  8km/h 77% 0in /  0.0mm
00:49 60.6 °F /  15.9 °C 53.4 °F /  11.9 °C 29.9in /  1013.3hPa Oeste 2.2mph /  3.5km/h 5mph /  8km/h 77% 0in /  0.0mm
00:54 60.8 °F /  16 °C 53.4 °F /  11.9 °C 29.9in /  1013.3hPa Oeste 1.8mph /  2.9km/h 4mph /  6.4km/h 77% 0in /  0.0mm
00:59 60.8 °F /  16 °C 53.4 °F /  11.9 °C 29.9in /  1013.3hPa Oeste 0.9mph /  1.5km/h 2.4mph /  3.9km/h 77% 0in /  0.0mm
01:04 60.8 °F /  16 °C 53.2 °F /  11.8 °C 29.9in /  1013.3hPa Calm   2.4mph /  3.9km/h 76% 0in /  0.0mm
01:09 60.8 °F /  16 °C 53.2 °F /  11.8 °C 29.9in /  1013.0hPa Calm   2mph /  3.2km/h 76% 0in /  0.0mm
01:14 60.8 °F /  16 °C 53.2 °F /  11.8 °C 29.9in /  1013.0hPa Calm     76% 0in /  0.0mm
01:19 60.8 °F /  16 °C 52.9 °F /  11.6 °C 29.9in /  1013.0hPa Calm     75.2% 0in /  0.0mm
01:24 60.8 °F /  16 °C 52.9 °F /  11.6 °C 29.9in /  1012.8hPa Calm   1.4mph /  2.3km/h 75% 0in /  0.0mm
01:29 61 °F /  16.1 °C 53.4 °F /  11.9 °C 29.9in /  1012.8hPa Calm   3.6mph /  5.8km/h 76.4% 0in /  0.0mm
01:34 61 °F /  16.1 °C 54.1 °F /  12.3 °C 29.9in /  1012.8hPa Calm   4mph /  6.4km/h 78% 0in /  0.0mm
01:39 60.6 °F /  15.9 °C 53.4 °F /  11.9 °C 29.9in /  1012.8hPa Calm   3mph /  4.8km/h 76.7% 0in /  0.0mm
01:44 60.4 °F /  15.8 °C 52.9 °F /  11.6 °C 29.9in /  1012.8hPa Calm   1mph /  1.6km/h 76.3% 0in /  0.0mm
01:49 60.3 °F /  15.7 °C 53.2 °F /  11.8 °C 29.9in /  1012.8hPa Calm     77.5% 0in /  0.0mm
01:54 60.1 °F /  15.6 °C 53.4 °F /  11.9 °C 29.9in /  1012.6hPa Calm     78.5% 0in /  0.0mm
01:59 60.1 °F /  15.6 °C 53.4 °F /  11.9 °C 29.9in /  1012.6hPa Calm   4.6mph /  7.4km/h 79% 0in /  0.0mm
02:04 59.7 °F /  15.4 °C 53.2 °F /  11.8 °C 29.9in /  1012.6hPa Calm   5mph /  8km/h 78.7% 0in /  0.0mm
02:09 59.7 °F /  15.4 °C 52.9 °F /  11.6 °C 29.9in /  1012.3hPa NO 0.5mph /  0.8km/h 5mph /  8km/h 78% 0in /  0.0mm
02:14 59.5 °F /  15.3 °C 52.7 °F /  11.5 °C 29.9in /  1012.3hPa ONO 1.4mph /  2.2km/h 4.6mph /  7.4km/h 78% 0in /  0.0mm
02:19 59.4 °F /  15.2 °C 52.5 °F /  11.4 °C 29.9in /  1012.3hPa ONO 1.6mph /  2.5km/h 5mph /  8km/h 78% 0in /  0.0mm
02:24 59.4 °F /  15.2 °C 52.5 °F /  11.4 °C 29.9in /  1012.1hPa ONO 1.8mph /  2.9km/h 5mph /  8km/h 78% 0in /  0.0mm
02:29 59.4 °F /  15.2 °C 52.3 °F /  11.3 °C 29.9in /  1012.1hPa NO 1.8mph /  2.9km/h 4.6mph /  7.4km/h 78% 0in /  0.0mm
02:34 59.2 °F /  15.1 °C 52.2 °F /  11.2 °C 29.9in /  1012.1hPa ONO 1.8mph /  2.9km/h 5mph /  8km/h 78% 0in /  0.0mm
02:39 58.8 °F /  14.9 °C 52.2 °F /  11.2 °C 29.9in /  1012.0hPa Oeste 1.8mph /  2.9km/h 4mph /  6.4km/h 78.7% 0in /  0.0mm
02:44 58.8 °F /  14.9 °C 52.3 °F /  11.3 °C 29.9in /  1012.0hPa Oeste 1.8mph /  2.9km/h 3mph /  4.8km/h 79% 0in /  0.0mm
02:49 58.8 °F /  14.9 °C 52.2 °F /  11.2 °C 29.9in /  1012.0hPa Oeste 1.2mph /  2km/h 2.9mph /  4.7km/h 78.2% 0in /  0.0mm
02:54 59 °F /  15 °C 52.2 °F /  11.2 °C 29.9in /  1011.9hPa Calm   5.2mph /  8.4km/h 78.3% 0in /  0.0mm
02:59 59 °F /  15 °C 52.3 °F /  11.3 °C 29.9in /  1011.9hPa SSE 1.4mph /  2.2km/h 5.2mph /  8.4km/h 78.6% 0in /  0.0mm
03:04 58.8 °F /  14.9 °C 52 °F /  11.1 °C 29.9in /  1012.0hPa SSE 2.9mph /  4.6km/h 6.2mph /  10km/h 78% 0in /  0.0mm
03:09 58.6 °F /  14.8 °C 52 °F /  11.1 °C 29.9in /  1012.0hPa Sur 3.1mph /  5km/h 6.2mph /  10km/h 78% 0in /  0.0mm
03:14 58.6 °F /  14.8 °C 51.8 °F /  11 °C 29.9in /  1012.0hPa Sur 3.6mph /  5.8km/h 6.4mph /  10.3km/h 78% 0in /  0.0mm
03:19 58.5 °F /  14.7 °C 51.6 °F /  10.9 °C 29.9in /  1012.0hPa SSO 3.6mph /  5.8km/h 6mph /  9.7km/h 78% 0in /  0.0mm
03:24 58.5 °F /  14.7 °C 51.4 °F /  10.8 °C 29.9in /  1011.8hPa SSO 3.6mph /  5.8km/h 5.8mph /  9.3km/h 77.2% 0in /  0.0mm
03:29 58.5 °F /  14.7 °C 51.3 °F /  10.7 °C 29.9in /  1011.8hPa SO 3.4mph /  5.5km/h 6mph /  9.7km/h 77% 0in /  0.0mm
03:34 58.6 °F /  14.8 °C 51.1 °F /  10.6 °C 29.9in /  1011.8hPa OSO 3.1mph /  5km/h 6.2mph /  10km/h 76.2% 0in /  0.0mm
03:39 58.6 °F /  14.8 °C 51.1 °F /  10.6 °C 29.9in /  1011.6hPa OSO 3.1mph /  5km/h 6mph /  9.7km/h 76% 0in /  0.0mm
03:44 58.6 °F /  14.8 °C 51.1 °F /  10.6 °C 29.9in /  1011.6hPa OSO 3.1mph /  5km/h 6mph /  9.7km/h 76% 0in /  0.0mm
03:49 58.6 °F /  14.8 °C 51.1 °F /  10.6 °C 29.9in /  1011.6hPa SO 2.7mph /  4.4km/h 5.9mph /  9.5km/h 76% 0in /  0.0mm
03:54 58.6 °F /  14.8 °C 51.1 °F /  10.6 °C 29.9in /  1011.6hPa SO 2mph /  3.2km/h 6mph /  9.7km/h 76% 0in /  0.0mm
03:59 58.6 °F /  14.8 °C 50.9 °F /  10.5 °C 29.9in /  1011.6hPa SO 2.2mph /  3.5km/h 5mph /  8km/h 75.3% 0in /  0.0mm
04:04 58.6 °F /  14.8 °C 50.7 °F /  10.4 °C 29.9in /  1011.6hPa SSO 2.4mph /  3.9km/h 4.7mph /  7.6km/h 75% 0in /  0.0mm
04:09 58.6 °F /  14.8 °C 50.9 °F /  10.5 °C 29.9in /  1011.4hPa SE 2.5mph /  4.1km/h 5.4mph /  8.7km/h 75.3% 0in /  0.0mm
04:14 58.5 °F /  14.7 °C 50.9 °F /  10.5 °C 29.9in /  1011.4hPa Sur 2.9mph /  4.6km/h 6.2mph /  10km/h 76% 0in /  0.0mm
04:19 58.3 °F /  14.6 °C 50.7 °F /  10.4 °C 29.9in /  1011.4hPa Sur 3.1mph /  5km/h 6mph /  9.7km/h 76% 0in /  0.0mm
04:24 58.3 °F /  14.6 °C 50.7 °F /  10.4 °C 29.9in /  1011.3hPa Sur 3.6mph /  5.8km/h 5.2mph /  8.4km/h 76% 0in /  0.0mm
04:29 58.3 °F /  14.6 °C 50.5 °F /  10.3 °C 29.9in /  1011.3hPa SSO 3.4mph /  5.5km/h 5.2mph /  8.4km/h 75.7% 0in /  0.0mm
04:34 58.3 °F /  14.6 °C 50.5 °F /  10.3 °C 29.9in /  1011.3hPa SSO 3.1mph /  5km/h 5mph /  8km/h 75.2% 0in /  0.0mm
04:39 58.3 °F /  14.6 °C 50.4 °F /  10.2 °C 29.9in /  1011.0hPa SSO 2.9mph /  4.6km/h 5.8mph /  9.3km/h 75% 0in /  0.0mm
04:44 58.3 °F /  14.6 °C 50.4 °F /  10.2 °C 29.9in /  1011.0hPa SSO 2.4mph /  3.9km/h 6mph /  9.7km/h 75% 0in /  0.0mm
04:49 58.5 °F /  14.7 °C 50.4 °F /  10.2 °C 29.9in /  1011.0hPa SSO 2.4mph /  3.9km/h 5mph /  8km/h 74.6% 0in /  0.0mm
04:54 58.5 °F /  14.7 °C 50.2 °F /  10.1 °C 29.9in /  1010.9hPa SSO 2.4mph /  3.9km/h 5mph /  8km/h 74% 0in /  0.0mm
04:59 58.5 °F /  14.7 °C 50 °F /  10 °C 29.9in /  1010.9hPa Sur 2.1mph /  3.4km/h 6.2mph /  10km/h 73.7% 0in /  0.0mm
05:04 58.3 °F /  14.6 °C 49.6 °F /  9.8 °C 29.9in /  1011.0hPa SSE 1.8mph /  2.9km/h 6.9mph /  11.1km/h 73% 0in /  0.0mm
05:09 58.1 °F /  14.5 °C 49.5 °F /  9.7 °C 29.9in /  1011.0hPa Sur 2.7mph /  4.3km/h 7.4mph /  11.9km/h 73% 0in /  0.0mm
05:14 57.9 °F /  14.4 °C 49.6 °F /  9.8 °C 29.9in /  1011.0hPa Sur 4.3mph /  6.9km/h 7mph /  11.3km/h 73.8% 0in /  0.0mm
05:19 57.7 °F /  14.3 °C 49.8 °F /  9.9 °C 29.9in /  1011.0hPa Sur 4.2mph /  6.8km/h 7.4mph /  11.9km/h 74.5% 0in /  0.0mm
05:24 57.7 °F /  14.3 °C 49.8 °F /  9.9 °C 29.9in /  1010.9hPa SSO 4mph /  6.5km/h 7mph /  11.3km/h 75% 0in /  0.0mm
05:29 57.6 °F /  14.2 °C 49.6 °F /  9.8 °C 29.9in /  1010.9hPa SSO 4.1mph /  6.6km/h 6.9mph /  11.1km/h 75% 0in /  0.0mm
05:34 57.6 °F /  14.2 °C 49.6 °F /  9.8 °C 29.9in /  1010.9hPa SSO 4.3mph /  6.9km/h 7mph /  11.3km/h 75% 0in /  0.0mm
05:39 57.6 °F /  14.2 °C 49.6 °F /  9.8 °C 29.8in /  1010.7hPa SSO 4.3mph /  6.9km/h 6.9mph /  11.1km/h 75% 0in /  0.0mm
05:44 57.6 °F /  14.2 °C 49.6 °F /  9.8 °C 29.8in /  1010.7hPa SSO 4.3mph /  6.9km/h 7mph /  11.3km/h 75% 0in /  0.0mm
05:49 57.6 °F /  14.2 °C 49.6 °F /  9.8 °C 29.8in /  1010.7hPa SSO 4.3mph /  6.9km/h 7mph /  11.3km/h 75% 0in /  0.0mm
05:54 57.6 °F /  14.2 °C 49.6 °F /  9.8 °C 29.8in /  1010.4hPa Sur 4.3mph /  6.9km/h 6.9mph /  11.1km/h 75% 0in /  0.0mm
05:59 57.6 °F /  14.2 °C 49.6 °F /  9.8 °C 29.8in /  1010.4hPa Sur 4.2mph /  6.7km/h 7mph /  11.3km/h 75% 0in /  0.0mm
06:04 57.4 °F /  14.1 °C 49.5 °F /  9.7 °C 29.8in /  1010.4hPa Sur 4mph /  6.5km/h 6.4mph /  10.3km/h 75% 0in /  0.0mm
06:09 57.4 °F /  14.1 °C 49.5 °F /  9.7 °C 29.8in /  1010.3hPa SSO 4.1mph /  6.6km/h 6.9mph /  11.1km/h 74.9% 0in /  0.0mm
06:14 57.2 °F /  14 °C 49.1 °F /  9.5 °C 29.8in /  1010.3hPa SSO 4.3mph /  6.9km/h 7.4mph /  11.9km/h 74% 0in /  0.0mm
06:19 57.2 °F /  14 °C 48.9 °F /  9.4 °C 29.8in /  1010.3hPa SO 4.5mph /  7.2km/h 7.6mph /  12.2km/h 74% 0in /  0.0mm
06:24 57.2 °F /  14 °C 48.9 °F /  9.4 °C 29.8in /  1010.3hPa SSO 4.7mph /  7.6km/h 8.1mph /  13km/h 74% 0in /  0.0mm
06:29 57.2 °F /  14 °C 48.9 °F /  9.4 °C 29.8in /  1010.3hPa SSO 4.7mph /  7.6km/h 8.1mph /  13km/h 74% 0in /  0.0mm
06:34 57 °F /  13.9 °C 49.1 °F /  9.5 °C 29.8in /  1010.3hPa SSO 4.7mph /  7.6km/h 8.1mph /  13km/h 74.8% 0in /  0.0mm
06:39 57 °F /  13.9 °C 49.3 °F /  9.6 °C 29.8in /  1010.2hPa SSO 4.7mph /  7.6km/h 7mph /  11.3km/h 75% 0in /  0.0mm
06:44 56.8 °F /  13.8 °C 49.1 °F /  9.5 °C 29.8in /  1010.2hPa SSO 4.7mph /  7.6km/h 6.9mph /  11.1km/h 75% 0in /  0.0mm
06:49 56.8 °F /  13.8 °C 48.9 °F /  9.4 °C 29.8in /  1010.2hPa SSO 4.5mph /  7.3km/h 7mph /  11.3km/h 75% 0in /  0.0mm
06:54 56.8 °F /  13.8 °C 48.9 °F /  9.4 °C 29.8in /  1010.1hPa SSO 4.3mph /  6.9km/h 6mph /  9.7km/h 75% 0in /  0.0mm
06:59 56.8 °F /  13.8 °C 48.9 °F /  9.4 °C 29.8in /  1010.1hPa SSO 4.2mph /  6.7km/h 6.9mph /  11.1km/h 75% 0in /  0.0mm
07:04 56.8 °F /  13.8 °C 48.9 °F /  9.4 °C 29.8in /  1010.1hPa SO 4mph /  6.5km/h 7mph /  11.3km/h 75% 0in /  0.0mm
07:09 56.8 °F /  13.8 °C 48.9 °F /  9.4 °C 29.8in /  1010.0hPa SO 4mph /  6.5km/h 8.1mph /  13km/h 75% 0in /  0.0mm
07:14 56.8 °F /  13.8 °C 48.9 °F /  9.4 °C 29.8in /  1010.0hPa SO 4mph /  6.5km/h 8mph /  12.9km/h 75% 0in /  0.0mm
07:19 56.8 °F /  13.8 °C 48.9 °F /  9.4 °C 29.8in /  1010.2hPa SO 3.7mph /  5.9km/h 6.9mph /  11.1km/h 75% 0in /  0.0mm
07:24 56.8 °F /  13.8 °C 48.9 °F /  9.4 °C 29.8in /  1010.2hPa SO 2.9mph /  4.7km/h 7mph /  11.3km/h 75% 0in /  0.0mm
07:29 56.8 °F /  13.8 °C 48.9 °F /  9.4 °C 29.8in /  1010.2hPa SO 3.2mph /  5.2km/h 8.1mph /  13km/h 75% 0in /  0.0mm
07:34 56.8 °F /  13.8 °C 48.9 °F /  9.4 °C 29.8in /  1010.2hPa SSO 4mph /  6.5km/h 8mph /  12.9km/h 75% 0in /  0.0mm
07:39 56.8 °F /  13.8 °C 48.9 °F /  9.4 °C 29.8in /  1010.2hPa SSO 3.9mph /  6.2km/h 5.9mph /  9.5km/h 74.8% 0in /  0.0mm
07:44 56.8 °F /  13.8 °C 48.6 °F /  9.2 °C 29.8in /  1010.2hPa SSO 3.6mph /  5.8km/h 6.2mph /  10km/h 74% 0in /  0.0mm
07:49 56.8 °F /  13.8 °C 48.6 °F /  9.2 °C 29.8in /  1010.3hPa SSO 3.7mph /  6km/h 6.9mph /  11.1km/h 74% 0in /  0.0mm
07:54 56.8 °F /  13.8 °C 48.7 °F /  9.3 °C 29.8in /  1010.3hPa SSO 4mph /  6.5km/h 7mph /  11.3km/h 74% 0in /  0.0mm
07:59 57 °F /  13.9 °C 48.6 °F /  9.2 °C 29.8in /  1010.3hPa SSO 3.6mph /  5.8km/h 6mph /  9.7km/h 73.3% 0in /  0.0mm
08:04 57.2 °F /  14 °C 48.6 °F /  9.2 °C 29.8in /  1010.4hPa SSO 3.1mph /  5km/h 6.9mph /  11.1km/h 72.8% 0in /  0.0mm
08:09 57.4 °F /  14.1 °C 48.4 °F /  9.1 °C 29.8in /  1010.4hPa SSO 3.5mph /  5.7km/h 7mph /  11.3km/h 72.1% 0in /  0.0mm
08:14 57.6 °F /  14.2 °C 48.6 °F /  9.2 °C 29.8in /  1010.4hPa SSO 4.3mph /  6.9km/h 6.2mph /  10km/h 72% 0in /  0.0mm
08:19 57.6 °F /  14.2 °C 48.4 °F /  9.1 °C 29.8in /  1010.5hPa SSO 4.2mph /  6.8km/h 8.5mph /  13.7km/h 71.2% 0in /  0.0mm
08:24 57.7 °F /  14.3 °C 47.8 °F /  8.8 °C 29.8in /  1010.5hPa SSO 4mph /  6.5km/h 9mph /  14.5km/h 69.8% 0in /  0.0mm
08:29 57.7 °F /  14.3 °C 47.5 °F /  8.6 °C 29.8in /  1010.5hPa SSO 4.5mph /  7.3km/h 9mph /  14.5km/h 68.9% 0in /  0.0mm
08:34 57.7 °F /  14.3 °C 47.7 °F /  8.7 °C 29.8in /  1010.5hPa SSO 5.4mph /  8.7km/h 8.1mph /  13km/h 68.8% 0in /  0.0mm
08:39 57.9 °F /  14.4 °C 47.5 °F /  8.6 °C 29.8in /  1010.4hPa SSO 5.2mph /  8.3km/h 8.1mph /  13km/h 68% 0in /  0.0mm
08:44 58.1 °F /  14.5 °C 47.7 °F /  8.7 °C 29.8in /  1010.4hPa SSO 4.7mph /  7.6km/h 8.1mph /  13km/h 68% 0in /  0.0mm
08:49 58.3 °F /  14.6 °C 47.7 °F /  8.7 °C 29.8in /  1010.5hPa SSO 5mph /  8km/h 8.5mph /  13.7km/h 67.7% 0in /  0.0mm
08:54 58.3 °F /  14.6 °C 47.3 °F /  8.5 °C 29.8in /  1010.5hPa SSO 5.4mph /  8.7km/h 9mph /  14.5km/h 67% 0in /  0.0mm
08:59 58.3 °F /  14.6 °C 47.3 °F /  8.5 °C 29.8in /  1010.5hPa Sur 5.7mph /  9.1km/h 9mph /  14.5km/h 66.8% 0in /  0.0mm
09:04 58.5 °F /  14.7 °C 47.1 °F /  8.4 °C 29.8in /  1010.5hPa SSO 5.9mph /  9.5km/h 8mph /  12.9km/h 66.1% 0in /  0.0mm
09:09 58.6 °F /  14.8 °C 47.1 °F /  8.4 °C 29.8in /  1010.5hPa Sur 5.3mph /  8.6km/h 7mph /  11.3km/h 65.3% 0in /  0.0mm
09:14 59 °F /  15 °C 47.1 °F /  8.4 °C 29.8in /  1010.5hPa SSO 4.3mph /  6.9km/h 8.1mph /  13km/h 64.6% 0in /  0.0mm
09:19 59.4 °F /  15.2 °C 47.1 °F /  8.4 °C 29.8in /  1010.6hPa Sur 4.2mph /  6.8km/h 8mph /  12.9km/h 64.3% 0in /  0.0mm
09:24 59.5 °F /  15.3 °C 47.1 °F /  8.4 °C 29.8in /  1010.6hPa SSO 4mph /  6.5km/h 7mph /  11.3km/h 63.4% 0in /  0.0mm
09:29 59.7 °F /  15.4 °C 47.1 °F /  8.4 °C 29.8in /  1010.6hPa SSE 4.1mph /  6.6km/h 8.1mph /  13km/h 63% 0in /  0.0mm
09:34 60.1 °F /  15.6 °C 47.1 °F /  8.4 °C 29.8in /  1010.6hPa Sur 4.3mph /  6.9km/h 8mph /  12.9km/h 62.3% 0in /  0.0mm
09:39 60.3 °F /  15.7 °C 46.9 °F /  8.3 °C 29.8in /  1010.6hPa SSO 4.2mph /  6.8km/h 7mph /  11.3km/h 61.3% 0in /  0.0mm
09:44 60.4 °F /  15.8 °C 47.1 °F /  8.4 °C 29.8in /  1010.6hPa Sur 4mph /  6.5km/h 6mph /  9.7km/h 61.3% 0in /  0.0mm
09:49 61.2 °F /  16.2 °C 47.5 °F /  8.6 °C 29.8in /  1010.6hPa Este 3.3mph /  5.3km/h 3mph /  4.8km/h 60.5% 0in /  0.0mm
09:54 62.1 °F /  16.7 °C 47.5 °F /  8.6 °C 29.8in /  1010.6hPa Sur 1.8mph /  2.9km/h 4.7mph /  7.6km/h 59% 0in /  0.0mm
09:59 62.2 °F /  16.8 °C 46.9 °F /  8.3 °C 29.8in /  1010.6hPa Sur 2.1mph /  3.3km/h 5.2mph /  8.4km/h 57.2% 0in /  0.0mm
10:04 62.4 °F /  16.9 °C 46.9 °F /  8.3 °C 29.8in /  1010.6hPa SSE 2.4mph /  3.9km/h 5.2mph /  8.4km/h 57% 0in /  0.0mm
10:09 62.6 °F /  17 °C 47.3 °F /  8.5 °C 29.8in /  1010.5hPa ESE 2.4mph /  3.9km/h 5mph /  8km/h 57% 0in /  0.0mm
10:14 63.1 °F /  17.3 °C 47.3 °F /  8.5 °C 29.8in /  1010.5hPa SSE 2.4mph /  3.9km/h 5.2mph /  8.4km/h 56.2% 0in /  0.0mm
10:19 63.5 °F /  17.5 °C 47.3 °F /  8.5 °C 29.8in /  1010.5hPa SSO 2.2mph /  3.5km/h 5mph /  8km/h 55.7% 0in /  0.0mm
10:24 63.9 °F /  17.7 °C 47.8 °F /  8.8 °C 29.8in /  1010.4hPa ONO 1.8mph /  2.9km/h 4mph /  6.4km/h 55.9% 0in /  0.0mm
10:29 64.2 °F /  17.9 °C 47.8 °F /  8.8 °C 29.8in /  1010.4hPa NNO 1.8mph /  2.9km/h 5mph /  8km/h 55% 0in /  0.0mm
10:34 64.8 °F /  18.2 °C 48 °F /  8.9 °C 29.8in /  1010.4hPa NNO 1.8mph /  2.9km/h 5mph /  8km/h 54.9% 0in /  0.0mm
10:39 65.1 °F /  18.4 °C 48.2 °F /  9 °C 29.8in /  1010.3hPa NO 1.7mph /  2.7km/h 5mph /  8km/h 54.2% 0in /  0.0mm
10:44 65.7 °F /  18.7 °C 48.6 °F /  9.2 °C 29.8in /  1010.3hPa NNE 1.4mph /  2.2km/h 4.6mph /  7.4km/h 54.2% 0in /  0.0mm
10:49 66.2 °F /  19 °C 48.7 °F /  9.3 °C 29.8in /  1010.3hPa NE 1.6mph /  2.6km/h 8.7mph /  14km/h 53.5% 0in /  0.0mm
10:54 66 °F /  18.9 °C 48.4 °F /  9.1 °C 29.8in /  1010.1hPa NE 2mph /  3.2km/h 9.2mph /  14.8km/h 52.9% 0in /  0.0mm
10:59 65.8 °F /  18.8 °C 48.6 °F /  9.2 °C 29.8in /  1010.1hPa NE 2.7mph /  4.4km/h 9mph /  14.5km/h 53.5% 0in /  0.0mm
11:04 66.2 °F /  19 °C 48.2 °F /  9 °C 29.8in /  1010.1hPa ESE 3.6mph /  5.8km/h 6.9mph /  11.1km/h 52.5% 0in /  0.0mm
11:09 66.4 °F /  19.1 °C 48.6 °F /  9.2 °C 29.8in /  1010.0hPa North 3.4mph /  5.4km/h 7.4mph /  11.9km/h 53% 0in /  0.0mm
11:14 66.7 °F /  19.3 °C 48.6 °F /  9.2 °C 29.8in /  1010.0hPa North 2.9mph /  4.6km/h 7.6mph /  12.2km/h 52.3% 0in /  0.0mm
11:19 66.9 °F /  19.4 °C 48.6 °F /  9.2 °C 29.8in /  1010.0hPa NE 3.1mph /  5km/h 8.5mph /  13.7km/h 51.7% 0in /  0.0mm
11:24 66.7 °F /  19.3 °C 47.3 °F /  8.5 °C 29.8in /  1009.9hPa NE 3.6mph /  5.8km/h 10mph /  16.1km/h 49.5% 0in /  0.0mm
11:29 66.4 °F /  19.1 °C 47.7 °F /  8.7 °C 29.8in /  1009.9hPa NE 4.3mph /  7km/h 11.5mph /  18.5km/h 50.9% 0in /  0.0mm
11:34 66.4 °F /  19.1 °C 47.8 °F /  8.8 °C 29.8in /  1009.9hPa ENE 5.9mph /  9.5km/h 12mph /  19.3km/h 51.2% 0in /  0.0mm
11:39 66.6 °F /  19.2 °C 47.8 °F /  8.8 °C 29.8in /  1009.7hPa NE 5.9mph /  9.5km/h 11mph /  17.7km/h 50.8% 0in /  0.0mm
11:44 66.6 °F /  19.2 °C 48.2 °F /  9 °C 29.8in /  1009.7hPa NE 5.9mph /  9.5km/h 13mph /  20.9km/h 51.7% 0in /  0.0mm
11:49 66.6 °F /  19.2 °C 48.7 °F /  9.3 °C 29.8in /  1009.7hPa NE 6.6mph /  10.7km/h 13mph /  20.9km/h 52.5% 0in /  0.0mm
11:54 66.6 °F /  19.2 °C 48.9 °F /  9.4 °C 29.8in /  1009.5hPa NE 8.1mph /  13km/h 13mph /  20.9km/h 52.8% 0in /  0.0mm
11:59 66.7 °F /  19.3 °C 47.8 °F /  8.8 °C 29.8in /  1009.5hPa ENE 7.8mph /  12.5km/h 15mph /  24.1km/h 50.8% 0in /  0.0mm
12:04 67.1 °F /  19.5 °C 47.8 °F /  8.8 °C 29.8in /  1009.5hPa ESE 7.4mph /  11.9km/h 15mph /  24.1km/h 50.3% 0in /  0.0mm
12:09 67.6 °F /  19.8 °C 48 °F /  8.9 °C 29.8in /  1009.4hPa Este 6.9mph /  11.1km/h 11.5mph /  18.5km/h 49.4% 0in /  0.0mm
12:14 68 °F /  20 °C 47.3 °F /  8.5 °C 29.8in /  1009.4hPa ESE 5.9mph /  9.5km/h 12mph /  19.3km/h 47.5% 0in /  0.0mm
12:19 68.2 °F /  20.1 °C 47.7 °F /  8.7 °C 29.8in /  1009.4hPa Este 5.5mph /  8.9km/h 11.5mph /  18.5km/h 48% 0in /  0.0mm
12:24 68.5 °F /  20.3 °C 46.8 °F /  8.2 °C 29.8in /  1009.3hPa ENE 4.7mph /  7.6km/h 12mph /  19.3km/h 45.8% 0in /  0.0mm
12:29 68.5 °F /  20.3 °C 46.9 °F /  8.3 °C 29.8in /  1009.3hPa ENE 4.9mph /  7.9km/h 14mph /  22.5km/h 46.1% 0in /  0.0mm
12:34 68.5 °F /  20.3 °C 47.1 °F /  8.4 °C 29.8in /  1009.3hPa NE 5.4mph /  8.7km/h 14.7mph /  23.7km/h 46.3% 0in /  0.0mm
12:39 68.4 °F /  20.2 °C 47.3 °F /  8.5 °C 29.8in /  1009.3hPa NE 6mph /  9.7km/h 18.4mph /  29.6km/h 47.1% 0in /  0.0mm
12:44 68.4 °F /  20.2 °C 46.8 °F /  8.2 °C 29.8in /  1009.3hPa NE 7.4mph /  11.9km/h 18mph /  29km/h 46% 0in /  0.0mm
12:49 68.2 °F /  20.1 °C 46.9 °F /  8.3 °C 29.8in /  1009.3hPa NE 8.2mph /  13.2km/h 15.6mph /  25.1km/h 46.7% 0in /  0.0mm
12:54 68.2 °F /  20.1 °C 47.3 °F /  8.5 °C 29.8in /  1009.1hPa NE 9.7mph /  15.6km/h 16mph /  25.7km/h 47.5% 0in /  0.0mm
12:59 68.4 °F /  20.2 °C 47.7 °F /  8.7 °C 29.8in /  1009.1hPa NE 9.3mph /  14.9km/h 14mph /  22.5km/h 47.6% 0in /  0.0mm
13:04 68.7 °F /  20.4 °C 47.5 °F /  8.6 °C 29.8in /  1009.1hPa NE 8.7mph /  14km/h 16.1mph /  25.9km/h 46.7% 0in /  0.0mm
13:09 68.5 °F /  20.3 °C 46.8 °F /  8.2 °C 29.8in /  1009.0hPa NE 9.1mph /  14.6km/h 17.5mph /  28.2km/h 45.8% 0in /  0.0mm
13:14 68.4 °F /  20.2 °C 47.3 °F /  8.5 °C 29.8in /  1009.0hPa NE 9.7mph /  15.6km/h 18.4mph /  29.6km/h 46.9% 0in /  0.0mm
13:19 68.5 °F /  20.3 °C 47.7 °F /  8.7 °C 29.8in /  1009.0hPa NE 9.5mph /  15.3km/h 20.1mph /  32.3km/h 47.2% 0in /  0.0mm
13:24 68.7 °F /  20.4 °C 46.9 °F /  8.3 °C 29.8in /  1008.8hPa NE 9.2mph /  14.8km/h 21mph /  33.8km/h 45.8% 0in /  0.0mm
13:29 68.9 °F /  20.5 °C 47.3 °F /  8.5 °C 29.8in /  1008.8hPa NE 9.2mph /  14.8km/h 16.1mph /  25.9km/h 45.9% 0in /  0.0mm
13:34 68.9 °F /  20.5 °C 48.2 °F /  9 °C 29.8in /  1008.8hPa NE 9.2mph /  14.8km/h 17.3mph /  27.8km/h 47.7% 0in /  0.0mm
13:39 68.5 °F /  20.3 °C 48.2 °F /  9 °C 29.8in /  1008.6hPa NE 9.4mph /  15.1km/h 17mph /  27.4km/h 48% 0in /  0.0mm
13:44 68.7 °F /  20.4 °C 48.6 °F /  9.2 °C 29.8in /  1008.6hPa ENE 9.7mph /  15.6km/h 16.3mph /  26.2km/h 48.5% 0in /  0.0mm
13:49 68.9 °F /  20.5 °C 47.8 °F /  8.8 °C 29.8in /  1008.6hPa NE 9.3mph /  14.9km/h 16.1mph /  25.9km/h 47.1% 0in /  0.0mm
13:54 69.1 °F /  20.6 °C 46.9 °F /  8.3 °C 29.8in /  1008.4hPa ENE 8.5mph /  13.7km/h 16.1mph /  25.9km/h 45.3% 0in /  0.0mm
13:59 69.1 °F /  20.6 °C 45.9 °F /  7.7 °C 29.8in /  1008.4hPa ENE 8.6mph /  13.8km/h 16.1mph /  25.9km/h 43.3% 0in /  0.0mm
14:04 69.4 °F /  20.8 °C 46.6 °F /  8.1 °C 29.8in /  1008.4hPa ENE 8.7mph /  14km/h 16mph /  25.7km/h 44% 0in /  0.0mm
14:09 69.3 °F /  20.7 °C 46.4 °F /  8 °C 29.8in /  1008.2hPa NE 8.6mph /  13.9km/h 15mph /  24.1km/h 44% 0in /  0.0mm
14:14 69.3 °F /  20.7 °C 47.5 °F /  8.6 °C 29.8in /  1008.2hPa ENE 8.5mph /  13.7km/h 16.1mph /  25.9km/h 45.7% 0in /  0.0mm
14:19 69.3 °F /  20.7 °C 47.7 °F /  8.7 °C 29.8in /  1008.2hPa NE 8.5mph /  13.7km/h 17.5mph /  28.2km/h 45.9% 0in /  0.0mm
14:24 69.6 °F /  20.9 °C 48.4 °F /  9.1 °C 29.8in /  1008.1hPa NE 8.5mph /  13.7km/h 17mph /  27.4km/h 46.8% 0in /  0.0mm
14:29 70 °F /  21.1 °C 48.7 °F /  9.3 °C 29.8in /  1008.1hPa NE 8.2mph /  13.2km/h 14mph /  22.5km/h 46.8% 0in /  0.0mm
14:34 69.8 °F /  21 °C 48.9 °F /  9.4 °C 29.8in /  1008.1hPa ENE 7.6mph /  12.2km/h 15mph /  24.1km/h 47.4% 0in /  0.0mm
14:39 69.6 °F /  20.9 °C 48.7 °F /  9.3 °C 29.8in /  1007.8hPa NE 8mph /  12.9km/h 18.5mph /  29.8km/h 47.4% 0in /  0.0mm
14:44 69.8 °F /  21 °C 49.1 °F /  9.5 °C 29.8in /  1007.8hPa NE 8.7mph /  14km/h 19mph /  30.6km/h 47.9% 0in /  0.0mm
14:49 70.2 °F /  21.2 °C 48.9 °F /  9.4 °C 29.8in /  1007.8hPa ENE 8.7mph /  14km/h 15.2mph /  24.5km/h 47% 0in /  0.0mm
14:54 70 °F /  21.1 °C 48.2 °F /  9 °C 29.8in /  1007.6hPa ENE 8.7mph /  14km/h 19mph /  30.6km/h 45.8% 0in /  0.0mm
14:59 70 °F /  21.1 °C 48.7 °F /  9.3 °C 29.8in /  1007.6hPa ENE 9.1mph /  14.7km/h 20.7mph /  33.3km/h 46.8% 0in /  0.0mm
15:04 70.3 °F /  21.3 °C 48.6 °F /  9.2 °C 29.8in /  1007.6hPa NE 9.7mph /  15.6km/h 21mph /  33.8km/h 46% 0in /  0.0mm
15:09 70.2 °F /  21.2 °C 47.8 °F /  8.8 °C 29.8in /  1007.4hPa NNE 10.3mph /  16.5km/h 20.7mph /  33.3km/h 44.8% 0in /  0.0mm
15:14 70.2 °F /  21.2 °C 47.5 °F /  8.6 °C 29.8in /  1007.4hPa NE 11.2mph /  18km/h 21mph /  33.8km/h 44.4% 0in /  0.0mm
15:19 70.2 °F /  21.2 °C 46.9 °F /  8.3 °C 29.8in /  1007.4hPa NE 11.1mph /  17.8km/h 19mph /  30.6km/h 43.6% 0in /  0.0mm
15:24 70 °F /  21.1 °C 46.9 °F /  8.3 °C 29.7in /  1007.2hPa NE 10.7mph /  17.2km/h 19mph /  30.6km/h 43.6% 0in /  0.0mm
15:29 70.2 °F /  21.2 °C 47.1 °F /  8.4 °C 29.7in /  1007.2hPa NE 10.5mph /  16.9km/h 18mph /  29km/h 43.8% 0in /  0.0mm
15:34 70.3 °F /  21.3 °C 46.9 °F /  8.3 °C 29.7in /  1007.2hPa NE 10.2mph /  16.4km/h 17mph /  27.4km/h 43.1% 0in /  0.0mm
15:39 70.5 °F /  21.4 °C 46.9 °F /  8.3 °C 29.7in /  1007.0hPa NE 10mph /  16.1km/h 17mph /  27.4km/h 43% 0in /  0.0mm
15:44 70.5 °F /  21.4 °C 46.9 °F /  8.3 °C 29.7in /  1007.0hPa NE 9.7mph /  15.6km/h 18.5mph /  29.8km/h 42.9% 0in /  0.0mm
15:49 70.9 °F /  21.6 °C 47.5 °F /  8.6 °C 29.7in /  1007.0hPa NE 9.7mph /  15.6km/h 21.3mph /  34.3km/h 43.3% 0in /  0.0mm
15:54 70.9 °F /  21.6 °C 46.8 °F /  8.2 °C 29.7in /  1006.9hPa NE 9.7mph /  15.6km/h 21mph /  33.8km/h 42.4% 0in /  0.0mm
15:59 70.5 °F /  21.4 °C 46 °F /  7.8 °C 29.7in /  1006.9hPa NE 10.6mph /  17.1km/h 22.5mph /  36.2km/h 41.7% 0in /  0.0mm
16:04 70.3 °F /  21.3 °C 46.2 °F /  7.9 °C 29.7in /  1006.9hPa NE 11.8mph /  19km/h 23mph /  37km/h 41.9% 0in /  0.0mm
16:09 70.5 °F /  21.4 °C 46 °F /  7.8 °C 29.7in /  1006.8hPa NE 11.8mph /  19km/h 23mph /  37km/h 41.5% 0in /  0.0mm
16:14 70.7 °F /  21.5 °C 46.8 °F /  8.2 °C 29.7in /  1006.8hPa NE 11.8mph /  19km/h 18.4mph /  29.6km/h 42.5% 0in /  0.0mm
16:19 71.2 °F /  21.8 °C 48 °F /  8.9 °C 29.7in /  1006.8hPa NE 11.2mph /  18.1km/h 18.5mph /  29.8km/h 43.8% 0in /  0.0mm
16:24 70.9 °F /  21.6 °C 48.2 °F /  9 °C 29.7in /  1006.5hPa NE 10.2mph /  16.4km/h 24.6mph /  39.6km/h 44.7% 0in /  0.0mm
16:29 70.2 °F /  21.2 °C 48 °F /  8.9 °C 29.7in /  1006.5hPa NE 11.4mph /  18.4km/h 25mph /  40.2km/h 45.4% 0in /  0.0mm
16:34 70.3 °F /  21.3 °C 47.8 °F /  8.8 °C 29.7in /  1006.5hPa NE 14mph /  22.5km/h 21mph /  33.8km/h 44.9% 0in /  0.0mm
16:39 70.5 °F /  21.4 °C 47.5 °F /  8.6 °C 29.7in /  1006.5hPa NE 13.1mph /  21.1km/h 19mph /  30.6km/h 44% 0in /  0.0mm
16:44 70.5 °F /  21.4 °C 47.3 °F /  8.5 °C 29.7in /  1006.5hPa NE 11.4mph /  18.4km/h 20.4mph /  32.8km/h 43.4% 0in /  0.0mm
16:49 70.7 °F /  21.5 °C 47.7 °F /  8.7 °C 29.7in /  1006.7hPa ENE 10.9mph /  17.6km/h 21mph /  33.8km/h 44% 0in /  0.0mm
16:54 70.7 °F /  21.5 °C 48 °F /  8.9 °C 29.7in /  1006.7hPa NE 10mph /  16.1km/h 18.1mph /  29.1km/h 44.6% 0in /  0.0mm
16:59 70.3 °F /  21.3 °C 48 °F /  8.9 °C 29.7in /  1006.7hPa NE 10.5mph /  16.9km/h 20.7mph /  33.3km/h 45.2% 0in /  0.0mm
17:04 70.2 °F /  21.2 °C 48.6 °F /  9.2 °C 29.7in /  1006.7hPa NE 11.2mph /  18km/h 21.9mph /  35.2km/h 46.4% 0in /  0.0mm
17:09 70.2 °F /  21.2 °C 49.3 °F /  9.6 °C 29.7in /  1006.5hPa NE 11.6mph /  18.7km/h 24.6mph /  39.6km/h 47.4% 0in /  0.0mm
17:14 69.8 °F /  21 °C 49.6 °F /  9.8 °C 29.7in /  1006.5hPa NE 12.3mph /  19.8km/h 25mph /  40.2km/h 48.6% 0in /  0.0mm
17:19 69.8 °F /  21 °C 50.2 °F /  10.1 °C 29.7in /  1006.6hPa NE 13mph /  21km/h 24.2mph /  38.9km/h 49.7% 0in /  0.0mm
17:24 69.6 °F /  20.9 °C 49.3 °F /  9.6 °C 29.7in /  1006.6hPa NE 14.5mph /  23.3km/h 24.2mph /  38.9km/h 48.4% 0in /  0.0mm
17:29 69.4 °F /  20.8 °C 49.5 °F /  9.7 °C 29.7in /  1006.6hPa NE 14.6mph /  23.5km/h 24mph /  38.6km/h 49.1% 0in /  0.0mm
17:34 69.1 °F /  20.6 °C 49.5 °F /  9.7 °C 29.8in /  1007.4hPa NE 14.7mph /  23.7km/h 23mph /  37km/h 49.6% 0in /  0.0mm
17:39 68.5 °F /  20.3 °C 48.6 °F /  9.2 °C 29.8in /  1007.4hPa NE 13.9mph /  22.4km/h 22mph /  35.4km/h 48.7% 0in /  0.0mm
17:44 68.5 °F /  20.3 °C 48.4 °F /  9.1 °C 29.8in /  1007.4hPa NE 12.5mph /  20.1km/h 21mph /  33.8km/h 48.3% 0in /  0.0mm
17:49 68.4 °F /  20.2 °C 47.3 °F /  8.5 °C 29.8in /  1007.4hPa NE 12.9mph /  20.8km/h 20.7mph /  33.3km/h 46.8% 0in /  0.0mm
17:54 68.4 °F /  20.2 °C 47.7 °F /  8.7 °C 29.7in /  1007.3hPa NNE 13.7mph /  22.1km/h 21mph /  33.8km/h 47.7% 0in /  0.0mm
17:59 67.8 °F /  19.9 °C 48.7 °F /  9.3 °C 29.7in /  1007.3hPa NE 12.7mph /  20.4km/h 21mph /  33.8km/h 50.2% 0in /  0.0mm
18:04 67.6 °F /  19.8 °C 49.3 °F /  9.6 °C 29.8in /  1007.5hPa NE 11.4mph /  18.4km/h 21mph /  33.8km/h 52% 0in /  0.0mm
18:09 67.3 °F /  19.6 °C 49.5 °F /  9.7 °C 29.8in /  1007.5hPa NE 11.6mph /  18.6km/h 21mph /  33.8km/h 52.6% 0in /  0.0mm
18:14 67.1 °F /  19.5 °C 49.8 °F /  9.9 °C 29.8in /  1007.5hPa Este 11.8mph /  19km/h 20.7mph /  33.3km/h 54% 0in /  0.0mm
18:19 66.7 °F /  19.3 °C 49.6 °F /  9.8 °C 29.8in /  1007.5hPa ENE 11.1mph /  17.8km/h 21mph /  33.8km/h 54.2% 0in /  0.0mm
18:24 66.7 °F /  19.3 °C 49.8 °F /  9.9 °C 29.7in /  1007.1hPa ENE 9.7mph /  15.6km/h 17mph /  27.4km/h 54.4% 0in /  0.0mm
18:29 66.7 °F /  19.3 °C 49.8 °F /  9.9 °C 29.7in /  1007.1hPa NE 8.8mph /  14.1km/h 15.2mph /  24.5km/h 54.5% 0in /  0.0mm
18:34 66.7 °F /  19.3 °C 50.2 °F /  10.1 °C 29.8in /  1007.7hPa NE 6.9mph /  11.1km/h 15mph /  24.1km/h 55.2% 0in /  0.0mm
18:39 66.6 °F /  19.2 °C 51.1 °F /  10.6 °C 29.8in /  1007.7hPa NE 7.5mph /  12.1km/h 16.1mph /  25.9km/h 57.4% 0in /  0.0mm
18:44 66.2 °F /  19 °C 51.1 °F /  10.6 °C 29.8in /  1007.7hPa NE 8.7mph /  14km/h 16mph /  25.7km/h 58.1% 0in /  0.0mm
18:49 65.8 °F /  18.8 °C 50.9 °F /  10.5 °C 29.8in /  1008.0hPa NE 9.1mph /  14.7km/h 17.3mph /  27.8km/h 58.5% 0in /  0.0mm
18:54 65.7 °F /  18.7 °C 51.3 °F /  10.7 °C 29.8in /  1008.0hPa NE 10mph /  16.1km/h 18.4mph /  29.6km/h 59.9% 0in /  0.0mm
18:59 65.3 °F /  18.5 °C 51.8 °F /  11 °C 29.8in /  1008.0hPa NE 10.1mph /  16.2km/h 18.5mph /  29.8km/h 61.6% 0in /  0.0mm
19:04 65.1 °F /  18.4 °C 52 °F /  11.1 °C 29.8in /  1008.5hPa NE 10.2mph /  16.4km/h 19mph /  30.6km/h 62.3% 0in /  0.0mm
19:09 64.9 °F /  18.3 °C 52 °F /  11.1 °C 29.8in /  1008.5hPa NE 10.2mph /  16.4km/h 19mph /  30.6km/h 63% 0in /  0.0mm
19:14 64.9 °F /  18.3 °C 52.5 °F /  11.4 °C 29.8in /  1008.5hPa NE 10.2mph /  16.4km/h 16mph /  25.7km/h 64.1% 0in /  0.0mm
19:19 64.8 °F /  18.2 °C 52.7 °F /  11.5 °C 29.8in /  1008.5hPa NE 10.6mph /  17km/h 21.3mph /  34.3km/h 65.2% 0in /  0.0mm
19:24 64.6 °F /  18.1 °C 53.1 °F /  11.7 °C 29.8in /  1008.4hPa NNE 11.4mph /  18.4km/h 21mph /  33.8km/h 66.2% 0in /  0.0mm
19:29 64.2 °F /  17.9 °C 54.1 °F /  12.3 °C 29.8in /  1008.4hPa NE 11.6mph /  18.6km/h 23mph /  37km/h 69.5% 0in /  0.0mm
19:34 63.9 °F /  17.7 °C 54.5 °F /  12.5 °C 29.8in /  1008.4hPa NE 11.8mph /  19km/h 23mph /  37km/h 71.4% 0in /  0.0mm
19:39 63.7 °F /  17.6 °C 54.1 °F /  12.3 °C 29.8in /  1008.1hPa NE 12.1mph /  19.4km/h 23mph /  37km/h 71% 0in /  0.0mm
19:44 63.5 °F /  17.5 °C 54 °F /  12.2 °C 29.8in /  1008.1hPa NE 12.5mph /  20.1km/h 19mph /  30.6km/h 71% 0in /  0.0mm
19:49 63.3 °F /  17.4 °C 53.8 °F /  12.1 °C 29.8in /  1008.6hPa ENE 11.6mph /  18.7km/h 17.3mph /  27.8km/h 70.8% 0in /  0.0mm
19:54 63.3 °F /  17.4 °C 54 °F /  12.2 °C 29.8in /  1008.6hPa ENE 10mph /  16.1km/h 17mph /  27.4km/h 71.3% 0in /  0.0mm
19:59 63.3 °F /  17.4 °C 54.1 °F /  12.3 °C 29.8in /  1008.6hPa Este 8.3mph /  13.3km/h 15mph /  24.1km/h 72% 0in /  0.0mm
20:04 63.3 °F /  17.4 °C 54.5 °F /  12.5 °C 29.8in /  1009.1hPa NE 6.2mph /  10km/h 8mph /  12.9km/h 73% 0in /  0.0mm
20:09 63.5 °F /  17.5 °C 54.9 °F /  12.7 °C 29.8in /  1009.1hPa NE 5.2mph /  8.3km/h 9.7mph /  15.6km/h 73% 0in /  0.0mm
20:14 63.7 °F /  17.6 °C 54.9 °F /  12.7 °C 29.8in /  1009.1hPa NE 3.1mph /  5km/h 10.7mph /  17.2km/h 73% 0in /  0.0mm
20:19 63.3 °F /  17.4 °C 54.5 °F /  12.5 °C 29.8in /  1009.1hPa ENE 4.1mph /  6.6km/h 13.8mph /  22.2km/h 73% 0in /  0.0mm
20:24 63.1 °F /  17.3 °C 54.7 °F /  12.6 °C 29.8in /  1009.1hPa NE 6.2mph /  10km/h 14mph /  22.5km/h 73.6% 0in /  0.0mm
20:29 63.3 °F /  17.4 °C 54.7 °F /  12.6 °C 29.8in /  1009.1hPa NE 6.3mph /  10.1km/h 11.5mph /  18.5km/h 73.6% 0in /  0.0mm
20:34 63.1 °F /  17.3 °C 54.5 °F /  12.5 °C 29.8in /  1009.1hPa NE 6.4mph /  10.3km/h 13.8mph /  22.2km/h 73.3% 0in /  0.0mm
20:39 63.1 °F /  17.3 °C 54.3 °F /  12.4 °C 29.8in /  1009.1hPa NE 6.8mph /  10.9km/h 14mph /  22.5km/h 73% 0in /  0.0mm
20:44 63 °F /  17.2 °C 54.3 °F /  12.4 °C 29.8in /  1009.1hPa NE 7.6mph /  12.2km/h 16.8mph /  27km/h 73% 0in /  0.0mm
20:49 63 °F /  17.2 °C 54.1 °F /  12.3 °C 29.8in /  1009.4hPa NE 8.4mph /  13.5km/h 17.5mph /  28.2km/h 73% 0in /  0.0mm
20:54 62.8 °F /  17.1 °C 54.1 °F /  12.3 °C 29.8in /  1009.4hPa NE 10mph /  16.1km/h 17.3mph /  27.8km/h 73.2% 0in /  0.0mm
20:59 62.8 °F /  17.1 °C 54.3 °F /  12.4 °C 29.8in /  1009.4hPa NE 9.6mph /  15.5km/h 17.5mph /  28.2km/h 74% 0in /  0.0mm
21:04 62.8 °F /  17.1 °C 54.7 °F /  12.6 °C 29.8in /  1009.5hPa NE 9.2mph /  14.8km/h 17mph /  27.4km/h 75.1% 0in /  0.0mm
21:09 62.6 °F /  17 °C 54.9 °F /  12.7 °C 29.8in /  1009.5hPa NE 8.6mph /  13.9km/h 17mph /  27.4km/h 76% 0in /  0.0mm
21:14 62.4 °F /  16.9 °C 55 °F /  12.8 °C 29.8in /  1009.5hPa NE 7.6mph /  12.2km/h 14mph /  22.5km/h 76.8% 0in /  0.0mm
21:19 62.4 °F /  16.9 °C 55.2 °F /  12.9 °C 29.8in /  1009.7hPa NE 7.8mph /  12.5km/h 13mph /  20.9km/h 77.1% 0in /  0.0mm
21:24 62.4 °F /  16.9 °C 55.6 °F /  13.1 °C 29.8in /  1009.7hPa NE 8.1mph /  13km/h 14mph /  22.5km/h 78% 0in /  0.0mm
21:29 62.2 °F /  16.8 °C 55.4 °F /  13 °C 29.8in /  1009.7hPa NE 8.2mph /  13.2km/h 17.3mph /  27.8km/h 78.5% 0in /  0.0mm
21:34 62.1 °F /  16.7 °C 55.4 °F /  13 °C 29.8in /  1009.9hPa NE 8.5mph /  13.7km/h 17mph /  27.4km/h 79% 0in /  0.0mm
21:39 61.7 °F /  16.5 °C 55 °F /  12.8 °C 29.8in /  1009.9hPa NE 9.1mph /  14.6km/h 17.5mph /  28.2km/h 79% 0in /  0.0mm
21:44 61.5 °F /  16.4 °C 54.7 °F /  12.6 °C 29.8in /  1009.9hPa NE 10.2mph /  16.4km/h 21.9mph /  35.2km/h 78.6% 0in /  0.0mm
21:49 61.2 °F /  16.2 °C 54.3 °F /  12.4 °C 29.8in /  1010.3hPa NE 10.7mph /  17.2km/h 22mph /  35.4km/h 78.1% 0in /  0.0mm
21:54 61 °F /  16.1 °C 54.3 °F /  12.4 °C 29.8in /  1010.3hPa NE 11.8mph /  19km/h 20mph /  32.2km/h 79% 0in /  0.0mm
21:59 61 °F /  16.1 °C 54.3 °F /  12.4 °C 29.8in /  1010.3hPa NE 11.6mph /  18.6km/h 18mph /  29km/h 79% 0in /  0.0mm
22:04 61 °F /  16.1 °C 54.3 °F /  12.4 °C 29.8in /  1010.6hPa NE 11.2mph /  18km/h 14mph /  22.5km/h 79% 0in /  0.0mm
22:09 61 °F /  16.1 °C 54.3 °F /  12.4 °C 29.8in /  1010.6hPa NE 10.3mph /  16.5km/h 19.6mph /  31.5km/h 78.6% 0in /  0.0mm
22:14 60.8 °F /  16 °C 53.8 °F /  12.1 °C 29.8in /  1010.6hPa NE 8.5mph /  13.7km/h 20mph /  32.2km/h 78% 0in /  0.0mm
22:19 60.6 °F /  15.9 °C 53.8 °F /  12.1 °C 29.8in /  1010.7hPa NE 9.1mph /  14.6km/h 16.1mph /  25.9km/h 78% 0in /  0.0mm
22:24 60.6 °F /  15.9 °C 53.4 °F /  11.9 °C 29.8in /  1010.7hPa NE 10.2mph /  16.4km/h 16.1mph /  25.9km/h 77.2% 0in /  0.0mm
22:29 60.6 °F /  15.9 °C 53.1 °F /  11.7 °C 29.8in /  1010.7hPa NE 9.6mph /  15.5km/h 16mph /  25.7km/h 76.1% 0in /  0.0mm
22:34 60.6 °F /  15.9 °C 52.5 °F /  11.4 °C 29.9in /  1011.3hPa NE 8.5mph /  13.7km/h 14mph /  22.5km/h 75% 0in /  0.0mm
22:39 60.4 °F /  15.8 °C 52.2 °F /  11.2 °C 29.9in /  1011.3hPa NNE 8.4mph /  13.5km/h 13.8mph /  22.2km/h 74.3% 0in /  0.0mm
22:44 60.4 °F /  15.8 °C 52.2 °F /  11.2 °C 29.9in /  1011.3hPa NNE 8.1mph /  13km/h 14mph /  22.5km/h 74.1% 0in /  0.0mm
22:49 60.3 °F /  15.7 °C 52.5 °F /  11.4 °C 29.9in /  1011.7hPa NE 8.3mph /  13.4km/h 14mph /  22.5km/h 75.5% 0in /  0.0mm
22:54 60.1 °F /  15.6 °C 52.7 °F /  11.5 °C 29.9in /  1011.7hPa NE 8.7mph /  14km/h 13mph /  20.9km/h 76.6% 0in /  0.0mm
22:59 60.1 °F /  15.6 °C 52.9 °F /  11.6 °C 29.9in /  1011.7hPa ENE 7.5mph /  12.1km/h 12.3mph /  19.8km/h 77% 0in /  0.0mm
23:04 60.1 °F /  15.6 °C 53.1 °F /  11.7 °C 29.9in /  1011.7hPa ENE 5.9mph /  9.5km/h 13mph /  20.9km/h 77.6% 0in /  0.0mm
23:09 60.1 °F /  15.6 °C 53.2 °F /  11.8 °C 29.9in /  1011.7hPa Este 5.7mph /  9.2km/h 13mph /  20.9km/h 78% 0in /  0.0mm
23:14 60.1 °F /  15.6 °C 53.2 °F /  11.8 °C 29.9in /  1011.7hPa NE 5.4mph /  8.7km/h 9.2mph /  14.8km/h 78.1% 0in /  0.0mm
23:19 60.1 °F /  15.6 °C 53.2 °F /  11.8 °C 29.9in /  1011.7hPa NE 5.2mph /  8.3km/h 9.7mph /  15.6km/h 78.3% 0in /  0.0mm
23:24 59.9 °F /  15.5 °C 53.1 °F /  11.7 °C 29.9in /  1011.5hPa ENE 4.7mph /  7.6km/h 10mph /  16.1km/h 78% 0in /  0.0mm
23:29 59.7 °F /  15.4 °C 52.9 °F /  11.6 °C 29.9in /  1011.5hPa ENE 5mph /  8km/h 10.4mph /  16.7km/h 78% 0in /  0.0mm
23:34 59.7 °F /  15.4 °C 52.9 °F /  11.6 °C 29.9in /  1011.6hPa NE 5.4mph /  8.7km/h 10mph /  16.1km/h 78% 0in /  0.0mm
23:39 59.7 °F /  15.4 °C 52.7 °F /  11.5 °C 29.9in /  1011.6hPa NE 5.6mph /  9km/h 10mph /  16.1km/h 78% 0in /  0.0mm
23:44 59.5 °F /  15.3 °C 52.7 °F /  11.5 °C 29.9in /  1011.6hPa NE 5.9mph /  9.5km/h 9mph /  14.5km/h 78% 0in /  0.0mm
23:49 59.5 °F /  15.3 °C 52.7 °F /  11.5 °C 29.9in /  1011.7hPa NE 5.7mph /  9.1km/h 9.2mph /  14.8km/h 78% 0in /  0.0mm
23:54 59.4 °F /  15.2 °C 52.5 °F /  11.4 °C 29.9in /  1011.7hPa NE 5.2mph /  8.4km/h 9mph /  14.5km/h 78% 0in /  0.0mm
23:59 59.4 °F /  15.2 °C 52.5 °F /  11.4 °C 29.9in /  1011.7hPa NE 5.2mph /  8.4km/h 9mph /  14.5km/h 78% 0in /  0.0mm
Murcia-Puente Tocinos, España
Compliments of Weather Underground - 3 mb

La estación de MeteoMurcia.com, publica sus datos en los siguientes proyectos:

Weather Underground PWS IMURCIAP2 Meteoclimatic www.awekas.at

W3Counter
Web Analytics